sensor_id;sensor_type;location;lat;lon;timestamp;P1;durP1;ratioP1;P2;durP2;ratioP2
53022;SDS011;38913;44.338;11.206;2023-04-03T00:00:42;3.13;;;2.30;;
53022;SDS011;38913;44.338;11.206;2023-04-03T00:03:07;2.83;;;2.15;;
53022;SDS011;38913;44.338;11.206;2023-04-03T00:05:32;2.05;;;1.75;;
53022;SDS011;38913;44.338;11.206;2023-04-03T00:07:57;4.07;;;1.80;;
53022;SDS011;38913;44.338;11.206;2023-04-03T00:10:23;3.50;;;1.85;;
53022;SDS011;38913;44.338;11.206;2023-04-03T00:12:48;2.05;;;1.67;;
53022;SDS011;38913;44.338;11.206;2023-04-03T00:15:13;2.63;;;1.65;;
53022;SDS011;38913;44.338;11.206;2023-04-03T00:17:39;2.25;;;1.83;;
53022;SDS011;38913;44.338;11.206;2023-04-03T00:20:04;3.25;;;1.92;;
53022;SDS011;38913;44.338;11.206;2023-04-03T00:22:30;2.50;;;1.70;;
53022;SDS011;38913;44.338;11.206;2023-04-03T00:24:56;2.55;;;2.03;;
53022;SDS011;38913;44.338;11.206;2023-04-03T00:27:21;2.90;;;1.95;;
53022;SDS011;38913;44.338;11.206;2023-04-03T00:29:47;3.20;;;1.80;;
53022;SDS011;38913;44.338;11.206;2023-04-03T00:32:12;4.28;;;1.83;;
53022;SDS011;38913;44.338;11.206;2023-04-03T00:34:37;2.03;;;1.70;;
53022;SDS011;38913;44.338;11.206;2023-04-03T00:37:03;2.50;;;1.65;;
53022;SDS011;38913;44.338;11.206;2023-04-03T00:39:28;2.90;;;2.08;;
53022;SDS011;38913;44.338;11.206;2023-04-03T00:41:53;3.10;;;2.07;;
53022;SDS011;38913;44.338;11.206;2023-04-03T00:44:23;2.95;;;2.10;;
53022;SDS011;38913;44.338;11.206;2023-04-03T00:47:08;4.35;;;2.35;;
53022;SDS011;38913;44.338;11.206;2023-04-03T00:49:34;2.92;;;2.47;;
53022;SDS011;38913;44.338;11.206;2023-04-03T00:52:00;2.92;;;2.40;;
53022;SDS011;38913;44.338;11.206;2023-04-03T00:54:25;3.75;;;2.70;;
53022;SDS011;38913;44.338;11.206;2023-04-03T00:56:51;2.67;;;2.20;;
53022;SDS011;38913;44.338;11.206;2023-04-03T00:59:29;3.72;;;2.53;;
53022;SDS011;38913;44.338;11.206;2023-04-03T01:01:55;2.90;;;2.17;;
53022;SDS011;38913;44.338;11.206;2023-04-03T01:04:31;3.53;;;2.00;;
53022;SDS011;38913;44.338;11.206;2023-04-03T01:06:57;1.88;;;1.70;;
53022;SDS011;38913;44.338;11.206;2023-04-03T01:09:23;2.40;;;2.00;;
53022;SDS011;38913;44.338;11.206;2023-04-03T01:11:48;2.95;;;2.13;;
53022;SDS011;38913;44.338;11.206;2023-04-03T01:14:14;3.45;;;2.58;;
53022;SDS011;38913;44.338;11.206;2023-04-03T01:16:39;2.35;;;2.00;;
53022;SDS011;38913;44.338;11.206;2023-04-03T01:19:06;2.45;;;2.17;;
53022;SDS011;38913;44.338;11.206;2023-04-03T01:26:30;4.00;;;3.03;;
53022;SDS011;38913;44.338;11.206;2023-04-03T01:28:58;5.82;;;3.45;;
53022;SDS011;38913;44.338;11.206;2023-04-03T01:31:25;4.30;;;2.58;;
53022;SDS011;38913;44.338;11.206;2023-04-03T01:33:51;3.78;;;2.45;;
53022;SDS011;38913;44.338;11.206;2023-04-03T01:36:19;3.00;;;2.70;;
53022;SDS011;38913;44.338;11.206;2023-04-03T01:38:44;3.03;;;2.17;;
53022;SDS011;38913;44.338;11.206;2023-04-03T01:41:09;2.97;;;2.50;;
53022;SDS011;38913;44.338;11.206;2023-04-03T01:43:35;3.03;;;2.42;;
53022;SDS011;38913;44.338;11.206;2023-04-03T01:46:00;3.73;;;2.60;;
53022;SDS011;38913;44.338;11.206;2023-04-03T01:48:25;4.25;;;2.67;;
53022;SDS011;38913;44.338;11.206;2023-04-03T01:50:51;3.03;;;2.67;;
53022;SDS011;38913;44.338;11.206;2023-04-03T01:53:16;4.45;;;2.95;;
53022;SDS011;38913;44.338;11.206;2023-04-03T01:55:41;3.28;;;2.75;;
53022;SDS011;38913;44.338;11.206;2023-04-03T01:58:06;3.08;;;2.30;;
53022;SDS011;38913;44.338;11.206;2023-04-03T02:00:32;2.30;;;2.10;;
53022;SDS011;38913;44.338;11.206;2023-04-03T02:02:57;3.30;;;2.20;;
53022;SDS011;38913;44.338;11.206;2023-04-03T02:05:22;2.13;;;1.93;;
53022;SDS011;38913;44.338;11.206;2023-04-03T02:07:48;2.35;;;2.00;;
53022;SDS011;38913;44.338;11.206;2023-04-03T02:10:13;3.67;;;2.60;;
53022;SDS011;38913;44.338;11.206;2023-04-03T02:12:38;5.63;;;3.75;;
53022;SDS011;38913;44.338;11.206;2023-04-03T02:15:04;3.85;;;2.70;;
53022;SDS011;38913;44.338;11.206;2023-04-03T02:17:29;2.88;;;2.58;;
53022;SDS011;38913;44.338;11.206;2023-04-03T02:19:54;4.80;;;2.85;;
53022;SDS011;38913;44.338;11.206;2023-04-03T02:22:20;4.70;;;2.60;;
53022;SDS011;38913;44.338;11.206;2023-04-03T02:24:45;4.50;;;2.88;;
53022;SDS011;38913;44.338;11.206;2023-04-03T02:27:11;3.85;;;2.47;;
53022;SDS011;38913;44.338;11.206;2023-04-03T02:29:36;3.80;;;2.72;;
53022;SDS011;38913;44.338;11.206;2023-04-03T02:32:01;3.40;;;2.60;;
53022;SDS011;38913;44.338;11.206;2023-04-03T02:34:26;3.07;;;2.77;;
53022;SDS011;38913;44.338;11.206;2023-04-03T02:36:51;4.82;;;2.78;;
53022;SDS011;38913;44.338;11.206;2023-04-03T02:39:17;3.30;;;2.50;;
53022;SDS011;38913;44.338;11.206;2023-04-03T02:41:42;4.17;;;2.50;;
53022;SDS011;38913;44.338;11.206;2023-04-03T02:44:09;4.07;;;3.08;;
53022;SDS011;38913;44.338;11.206;2023-04-03T02:46:34;3.55;;;2.47;;
53022;SDS011;38913;44.338;11.206;2023-04-03T02:48:59;3.47;;;2.78;;
53022;SDS011;38913;44.338;11.206;2023-04-03T02:51:25;4.18;;;2.58;;
53022;SDS011;38913;44.338;11.206;2023-04-03T02:53:50;3.75;;;2.70;;
53022;SDS011;38913;44.338;11.206;2023-04-03T02:56:16;3.25;;;2.53;;
53022;SDS011;38913;44.338;11.206;2023-04-03T02:58:42;3.88;;;2.78;;
53022;SDS011;38913;44.338;11.206;2023-04-03T03:01:07;5.25;;;2.40;;
53022;SDS011;38913;44.338;11.206;2023-04-03T03:03:32;3.10;;;2.07;;
53022;SDS011;38913;44.338;11.206;2023-04-03T03:06:04;3.40;;;2.70;;
53022;SDS011;38913;44.338;11.206;2023-04-03T03:08:29;4.90;;;2.85;;
53022;SDS011;38913;44.338;11.206;2023-04-03T03:10:55;3.13;;;2.50;;
53022;SDS011;38913;44.338;11.206;2023-04-03T03:13:20;3.90;;;2.67;;
53022;SDS011;38913;44.338;11.206;2023-04-03T03:15:45;4.60;;;2.50;;
53022;SDS011;38913;44.338;11.206;2023-04-03T03:18:10;3.47;;;2.80;;
53022;SDS011;38913;44.338;11.206;2023-04-03T03:23:30;4.25;;;2.95;;
53022;SDS011;38913;44.338;11.206;2023-04-03T03:26:07;3.75;;;2.70;;
53022;SDS011;38913;44.338;11.206;2023-04-03T03:30:58;3.70;;;2.67;;
53022;SDS011;38913;44.338;11.206;2023-04-03T03:33:24;3.80;;;2.60;;
53022;SDS011;38913;44.338;11.206;2023-04-03T03:35:50;3.45;;;2.67;;
53022;SDS011;38913;44.338;11.206;2023-04-03T03:38:16;3.88;;;2.58;;
53022;SDS011;38913;44.338;11.206;2023-04-03T03:40:41;3.72;;;2.63;;
53022;SDS011;38913;44.338;11.206;2023-04-03T03:43:06;5.37;;;3.20;;
53022;SDS011;38913;44.338;11.206;2023-04-03T03:45:31;5.13;;;3.10;;
53022;SDS011;38913;44.338;11.206;2023-04-03T03:47:57;4.18;;;2.90;;
53022;SDS011;38913;44.338;11.206;2023-04-03T03:50:22;4.00;;;2.80;;
53022;SDS011;38913;44.338;11.206;2023-04-03T03:52:50;3.75;;;2.85;;
53022;SDS011;38913;44.338;11.206;2023-04-03T03:55:16;3.53;;;3.03;;
53022;SDS011;38913;44.338;11.206;2023-04-03T03:57:41;5.65;;;2.78;;
53022;SDS011;38913;44.338;11.206;2023-04-03T04:00:07;4.68;;;2.72;;
53022;SDS011;38913;44.338;11.206;2023-04-03T04:02:34;3.78;;;2.45;;
53022;SDS011;38913;44.338;11.206;2023-04-03T04:05:00;3.70;;;2.80;;
53022;SDS011;38913;44.338;11.206;2023-04-03T04:07:25;5.15;;;2.70;;
53022;SDS011;38913;44.338;11.206;2023-04-03T04:09:53;3.28;;;2.45;;
53022;SDS011;38913;44.338;11.206;2023-04-03T04:12:18;2.88;;;2.60;;
53022;SDS011;38913;44.338;11.206;2023-04-03T04:14:44;3.42;;;2.45;;
53022;SDS011;38913;44.338;11.206;2023-04-03T04:17:11;4.15;;;2.88;;
53022;SDS011;38913;44.338;11.206;2023-04-03T04:19:37;4.53;;;2.75;;
53022;SDS011;38913;44.338;11.206;2023-04-03T04:22:02;4.53;;;2.58;;
53022;SDS011;38913;44.338;11.206;2023-04-03T04:24:28;2.60;;;2.35;;
53022;SDS011;38913;44.338;11.206;2023-04-03T04:26:53;4.43;;;2.95;;
53022;SDS011;38913;44.338;11.206;2023-04-03T04:29:18;2.88;;;2.40;;
53022;SDS011;38913;44.338;11.206;2023-04-03T04:31:44;3.63;;;2.92;;
53022;SDS011;38913;44.338;11.206;2023-04-03T04:34:09;4.40;;;2.65;;
53022;SDS011;38913;44.338;11.206;2023-04-03T04:36:34;3.35;;;2.50;;
53022;SDS011;38913;44.338;11.206;2023-04-03T04:39:00;3.67;;;2.70;;
53022;SDS011;38913;44.338;11.206;2023-04-03T04:41:25;6.32;;;3.00;;
53022;SDS011;38913;44.338;11.206;2023-04-03T04:43:51;4.40;;;2.97;;
53022;SDS011;38913;44.338;11.206;2023-04-03T04:46:17;5.03;;;2.80;;
53022;SDS011;38913;44.338;11.206;2023-04-03T04:48:42;5.60;;;2.85;;
53022;SDS011;38913;44.338;11.206;2023-04-03T04:51:08;3.45;;;2.60;;
53022;SDS011;38913;44.338;11.206;2023-04-03T04:53:33;3.75;;;3.03;;
53022;SDS011;38913;44.338;11.206;2023-04-03T04:55:58;5.07;;;3.22;;
53022;SDS011;38913;44.338;11.206;2023-04-03T04:58:24;4.63;;;3.13;;
53022;SDS011;38913;44.338;11.206;2023-04-03T05:00:50;3.78;;;2.90;;
53022;SDS011;38913;44.338;11.206;2023-04-03T05:03:22;4.43;;;3.00;;
53022;SDS011;38913;44.338;11.206;2023-04-03T05:05:48;5.27;;;2.60;;
53022;SDS011;38913;44.338;11.206;2023-04-03T05:08:13;3.90;;;2.70;;
53022;SDS011;38913;44.338;11.206;2023-04-03T05:10:38;4.50;;;2.92;;
53022;SDS011;38913;44.338;11.206;2023-04-03T05:13:05;3.80;;;2.72;;
53022;SDS011;38913;44.338;11.206;2023-04-03T05:15:30;4.17;;;3.40;;
53022;SDS011;38913;44.338;11.206;2023-04-03T05:17:56;4.22;;;3.15;;
53022;SDS011;38913;44.338;11.206;2023-04-03T05:20:21;4.53;;;3.10;;
53022;SDS011;38913;44.338;11.206;2023-04-03T05:22:46;4.07;;;2.50;;
53022;SDS011;38913;44.338;11.206;2023-04-03T05:25:12;3.97;;;3.30;;
53022;SDS011;38913;44.338;11.206;2023-04-03T05:27:37;4.43;;;2.90;;
53022;SDS011;38913;44.338;11.206;2023-04-03T05:30:02;4.47;;;2.93;;
53022;SDS011;38913;44.338;11.206;2023-04-03T05:32:27;4.90;;;2.90;;
53022;SDS011;38913;44.338;11.206;2023-04-03T05:34:53;4.67;;;2.77;;
53022;SDS011;38913;44.338;11.206;2023-04-03T05:37:18;4.07;;;3.10;;
53022;SDS011;38913;44.338;11.206;2023-04-03T05:39:44;3.72;;;2.78;;
53022;SDS011;38913;44.338;11.206;2023-04-03T05:42:09;3.20;;;2.73;;
53022;SDS011;38913;44.338;11.206;2023-04-03T05:44:36;5.40;;;3.25;;
53022;SDS011;38913;44.338;11.206;2023-04-03T05:47:01;3.27;;;2.63;;
53022;SDS011;38913;44.338;11.206;2023-04-03T05:49:26;4.43;;;2.40;;
53022;SDS011;38913;44.338;11.206;2023-04-03T05:51:52;2.92;;;2.60;;
53022;SDS011;38913;44.338;11.206;2023-04-03T05:56:45;5.30;;;2.63;;
53022;SDS011;38913;44.338;11.206;2023-04-03T05:59:10;3.33;;;2.40;;
53022;SDS011;38913;44.338;11.206;2023-04-03T06:01:36;3.35;;;2.60;;
53022;SDS011;38913;44.338;11.206;2023-04-03T06:04:02;2.95;;;2.40;;
53022;SDS011;38913;44.338;11.206;2023-04-03T06:06:42;3.70;;;2.40;;
53022;SDS011;38913;44.338;11.206;2023-04-03T06:09:08;2.67;;;2.40;;
53022;SDS011;38913;44.338;11.206;2023-04-03T06:11:33;2.85;;;2.40;;
53022;SDS011;38913;44.338;11.206;2023-04-03T06:13:58;3.00;;;2.70;;
53022;SDS011;38913;44.338;11.206;2023-04-03T06:16:23;2.60;;;2.30;;
53022;SDS011;38913;44.338;11.206;2023-04-03T06:18:49;4.38;;;2.60;;
53022;SDS011;38913;44.338;11.206;2023-04-03T06:21:14;3.27;;;2.63;;
53022;SDS011;38913;44.338;11.206;2023-04-03T06:23:39;3.88;;;2.97;;
53022;SDS011;38913;44.338;11.206;2023-04-03T06:26:05;3.03;;;2.38;;
53022;SDS011;38913;44.338;11.206;2023-04-03T06:28:30;3.70;;;2.58;;
53022;SDS011;38913;44.338;11.206;2023-04-03T06:30:56;3.58;;;2.88;;
53022;SDS011;38913;44.338;11.206;2023-04-03T06:33:21;3.60;;;2.60;;
53022;SDS011;38913;44.338;11.206;2023-04-03T06:35:47;4.07;;;2.75;;
53022;SDS011;38913;44.338;11.206;2023-04-03T06:38:12;3.60;;;2.60;;
53022;SDS011;38913;44.338;11.206;2023-04-03T06:40:37;2.65;;;2.45;;
53022;SDS011;38913;44.338;11.206;2023-04-03T06:43:03;3.28;;;2.70;;
53022;SDS011;38913;44.338;11.206;2023-04-03T06:45:28;2.58;;;2.38;;
53022;SDS011;38913;44.338;11.206;2023-04-03T06:47:53;2.97;;;2.30;;
53022;SDS011;38913;44.338;11.206;2023-04-03T06:50:19;2.97;;;2.45;;
53022;SDS011;38913;44.338;11.206;2023-04-03T06:52:44;2.42;;;2.20;;
53022;SDS011;38913;44.338;11.206;2023-04-03T06:55:09;4.13;;;2.60;;
53022;SDS011;38913;44.338;11.206;2023-04-03T06:57:37;3.08;;;2.47;;
53022;SDS011;38913;44.338;11.206;2023-04-03T07:00:03;3.65;;;2.60;;
53022;SDS011;38913;44.338;11.206;2023-04-03T07:02:29;3.30;;;2.72;;
53022;SDS011;38913;44.338;11.206;2023-04-03T07:04:54;3.37;;;2.73;;
53022;SDS011;38913;44.338;11.206;2023-04-03T07:07:19;5.60;;;2.97;;
53022;SDS011;38913;44.338;11.206;2023-04-03T07:09:45;3.72;;;2.70;;
53022;SDS011;38913;44.338;11.206;2023-04-03T07:12:12;3.28;;;2.85;;
53022;SDS011;38913;44.338;11.206;2023-04-03T07:14:38;2.80;;;2.60;;
53022;SDS011;38913;44.338;11.206;2023-04-03T07:17:03;2.57;;;2.30;;
53022;SDS011;38913;44.338;11.206;2023-04-03T07:19:28;3.20;;;2.57;;
53022;SDS011;38913;44.338;11.206;2023-04-03T07:21:55;2.67;;;2.42;;
53022;SDS011;38913;44.338;11.206;2023-04-03T07:24:21;3.22;;;2.65;;
53022;SDS011;38913;44.338;11.206;2023-04-03T07:26:52;3.10;;;2.50;;
53022;SDS011;38913;44.338;11.206;2023-04-03T07:29:17;2.83;;;2.58;;
53022;SDS011;38913;44.338;11.206;2023-04-03T07:31:43;2.72;;;2.28;;
53022;SDS011;38913;44.338;11.206;2023-04-03T07:34:09;3.47;;;2.50;;
53022;SDS011;38913;44.338;11.206;2023-04-03T07:39:04;3.00;;;2.40;;
53022;SDS011;38913;44.338;11.206;2023-04-03T07:41:29;2.67;;;2.47;;
53022;SDS011;38913;44.338;11.206;2023-04-03T07:43:55;2.70;;;2.50;;
53022;SDS011;38913;44.338;11.206;2023-04-03T07:46:21;2.88;;;2.30;;
53022;SDS011;38913;44.338;11.206;2023-04-03T07:48:46;2.67;;;2.15;;
53022;SDS011;38913;44.338;11.206;2023-04-03T07:51:12;2.77;;;2.13;;
53022;SDS011;38913;44.338;11.206;2023-04-03T07:53:37;4.32;;;2.45;;
53022;SDS011;38913;44.338;11.206;2023-04-03T07:56:03;2.80;;;2.57;;
53022;SDS011;38913;44.338;11.206;2023-04-03T07:58:28;3.22;;;2.05;;
53022;SDS011;38913;44.338;11.206;2023-04-03T08:00:54;3.35;;;2.63;;
53022;SDS011;38913;44.338;11.206;2023-04-03T08:03:19;2.53;;;2.33;;
53022;SDS011;38913;44.338;11.206;2023-04-03T08:05:47;3.55;;;2.58;;
53022;SDS011;38913;44.338;11.206;2023-04-03T08:08:13;3.25;;;2.30;;
53022;SDS011;38913;44.338;11.206;2023-04-03T08:10:39;2.72;;;2.38;;
53022;SDS011;38913;44.338;11.206;2023-04-03T08:13:04;2.55;;;2.30;;
53022;SDS011;38913;44.338;11.206;2023-04-03T08:15:30;2.95;;;2.65;;
53022;SDS011;38913;44.338;11.206;2023-04-03T08:17:55;3.28;;;2.97;;
53022;SDS011;38913;44.338;11.206;2023-04-03T08:20:21;3.38;;;2.92;;
53022;SDS011;38913;44.338;11.206;2023-04-03T08:22:46;3.38;;;3.08;;
53022;SDS011;38913;44.338;11.206;2023-04-03T08:25:11;3.83;;;3.43;;
53022;SDS011;38913;44.338;11.206;2023-04-03T08:27:37;3.13;;;2.83;;
53022;SDS011;38913;44.338;11.206;2023-04-03T08:30:03;3.15;;;2.78;;
53022;SDS011;38913;44.338;11.206;2023-04-03T08:32:29;3.63;;;2.80;;
53022;SDS011;38913;44.338;11.206;2023-04-03T08:34:54;4.33;;;3.20;;
53022;SDS011;38913;44.338;11.206;2023-04-03T08:37:19;3.90;;;3.50;;
53022;SDS011;38913;44.338;11.206;2023-04-03T08:39:45;3.45;;;3.15;;
53022;SDS011;38913;44.338;11.206;2023-04-03T08:44:58;5.82;;;3.42;;
53022;SDS011;38913;44.338;11.206;2023-04-03T08:47:25;3.38;;;3.00;;
53022;SDS011;38913;44.338;11.206;2023-04-03T08:49:54;3.65;;;2.65;;
53022;SDS011;38913;44.338;11.206;2023-04-03T08:52:32;2.60;;;2.40;;
53022;SDS011;38913;44.338;11.206;2023-04-03T08:55:00;2.90;;;1.80;;
53022;SDS011;38913;44.338;11.206;2023-04-03T08:57:28;2.65;;;1.85;;
53022;SDS011;38913;44.338;11.206;2023-04-03T08:59:53;2.55;;;1.50;;
53022;SDS011;38913;44.338;11.206;2023-04-03T09:08:10;2.13;;;1.80;;
53022;SDS011;38913;44.338;11.206;2023-04-03T09:10:37;3.13;;;1.90;;
53022;SDS011;38913;44.338;11.206;2023-04-03T09:13:08;3.78;;;1.70;;
53022;SDS011;38913;44.338;11.206;2023-04-03T09:15:35;3.05;;;1.65;;
53022;SDS011;38913;44.338;11.206;2023-04-03T09:20:56;1.60;;;1.45;;
53022;SDS011;38913;44.338;11.206;2023-04-03T09:23:30;1.58;;;1.30;;
53022;SDS011;38913;44.338;11.206;2023-04-03T09:26:08;2.03;;;1.63;;
53022;SDS011;38913;44.338;11.206;2023-04-03T09:28:37;2.50;;;1.48;;
53022;SDS011;38913;44.338;11.206;2023-04-03T09:31:05;1.65;;;1.33;;
53022;SDS011;38913;44.338;11.206;2023-04-03T09:33:39;2.33;;;1.40;;
53022;SDS011;38913;44.338;11.206;2023-04-03T09:36:04;1.48;;;1.02;;
53022;SDS011;38913;44.338;11.206;2023-04-03T09:38:30;1.83;;;1.20;;
53022;SDS011;38913;44.338;11.206;2023-04-03T09:43:54;2.55;;;1.67;;
53022;SDS011;38913;44.338;11.206;2023-04-03T09:46:53;3.07;;;1.50;;
53022;SDS011;38913;44.338;11.206;2023-04-03T09:49:11;2.28;;;1.70;;
53022;SDS011;38913;44.338;11.206;2023-04-03T09:51:37;4.40;;;2.10;;
53022;SDS011;38913;44.338;11.206;2023-04-03T09:56:50;3.17;;;2.58;;
53022;SDS011;38913;44.338;11.206;2023-04-03T09:59:16;5.70;;;3.05;;
53022;SDS011;38913;44.338;11.206;2023-04-03T10:01:42;4.93;;;3.30;;
53022;SDS011;38913;44.338;11.206;2023-04-03T10:04:18;4.90;;;2.05;;
53022;SDS011;38913;44.338;11.206;2023-04-03T10:11:57;3.53;;;2.03;;
53022;SDS011;38913;44.338;11.206;2023-04-03T10:14:22;4.32;;;2.03;;
53022;SDS011;38913;44.338;11.206;2023-04-03T10:16:53;3.55;;;2.08;;
53022;SDS011;38913;44.338;11.206;2023-04-03T10:24:36;2.15;;;1.95;;
53022;SDS011;38913;44.338;11.206;2023-04-03T10:29:42;4.05;;;2.13;;
53022;SDS011;38913;44.338;11.206;2023-04-03T10:34:39;2.70;;;1.80;;
53022;SDS011;38913;44.338;11.206;2023-04-03T10:37:24;1.40;;;1.20;;
53022;SDS011;38913;44.338;11.206;2023-04-03T10:39:57;4.57;;;2.77;;
53022;SDS011;38913;44.338;11.206;2023-04-03T10:42:37;3.15;;;1.85;;
53022;SDS011;38913;44.338;11.206;2023-04-03T10:47:54;2.53;;;1.70;;
53022;SDS011;38913;44.338;11.206;2023-04-03T10:58:52;3.80;;;1.27;;
53022;SDS011;38913;44.338;11.206;2023-04-03T11:01:24;1.85;;;1.30;;
53022;SDS011;38913;44.338;11.206;2023-04-03T11:03:52;6.18;;;3.00;;
53022;SDS011;38913;44.338;11.206;2023-04-03T11:06:18;2.08;;;1.42;;
53022;SDS011;38913;44.338;11.206;2023-04-03T11:11:11;5.63;;;1.67;;
53022;SDS011;38913;44.338;11.206;2023-04-03T11:13:40;4.38;;;2.13;;
53022;SDS011;38913;44.338;11.206;2023-04-03T11:16:07;4.25;;;2.40;;
53022;SDS011;38913;44.338;11.206;2023-04-03T11:18:40;4.40;;;2.00;;
53022;SDS011;38913;44.338;11.206;2023-04-03T11:21:15;4.55;;;1.60;;
53022;SDS011;38913;44.338;11.206;2023-04-03T11:23:42;2.90;;;1.50;;
53022;SDS011;38913;44.338;11.206;2023-04-03T11:26:12;3.58;;;1.38;;
53022;SDS011;38913;44.338;11.206;2023-04-03T11:28:39;3.67;;;1.75;;
53022;SDS011;38913;44.338;11.206;2023-04-03T11:33:54;1.92;;;1.15;;
53022;SDS011;38913;44.338;11.206;2023-04-03T11:36:54;1.70;;;1.15;;
53022;SDS011;38913;44.338;11.206;2023-04-03T11:39:28;1.92;;;1.10;;
53022;SDS011;38913;44.338;11.206;2023-04-03T11:41:55;3.80;;;1.30;;
53022;SDS011;38913;44.338;11.206;2023-04-03T11:44:32;4.20;;;1.15;;
53022;SDS011;38913;44.338;11.206;2023-04-03T11:46:58;3.20;;;1.25;;
53022;SDS011;38913;44.338;11.206;2023-04-03T11:52:11;4.57;;;1.52;;
53022;SDS011;38913;44.338;11.206;2023-04-03T11:59:49;2.90;;;1.77;;
53022;SDS011;38913;44.338;11.206;2023-04-03T12:05:24;3.45;;;1.40;;
53022;SDS011;38913;44.338;11.206;2023-04-03T12:10:34;2.55;;;1.20;;
53022;SDS011;38913;44.338;11.206;2023-04-03T12:13:00;1.88;;;1.40;;
53022;SDS011;38913;44.338;11.206;2023-04-03T12:18:31;2.00;;;1.20;;
53022;SDS011;38913;44.338;11.206;2023-04-03T12:20:53;4.50;;;1.50;;
53022;SDS011;38913;44.338;11.206;2023-04-03T12:23:29;4.13;;;1.63;;
53022;SDS011;38913;44.338;11.206;2023-04-03T12:26:06;3.15;;;1.73;;
53022;SDS011;38913;44.338;11.206;2023-04-03T12:28:44;2.60;;;1.50;;
53022;SDS011;38913;44.338;11.206;2023-04-03T12:31:11;1.70;;;1.42;;
53022;SDS011;38913;44.338;11.206;2023-04-03T12:36:11;1.38;;;1.00;;
53022;SDS011;38913;44.338;11.206;2023-04-03T12:38:46;4.72;;;1.90;;
53022;SDS011;38913;44.338;11.206;2023-04-03T12:41:58;3.70;;;1.60;;
53022;SDS011;38913;44.338;11.206;2023-04-03T12:46:46;3.30;;;1.48;;
53022;SDS011;38913;44.338;11.206;2023-04-03T12:51:49;2.33;;;1.15;;
53022;SDS011;38913;44.338;11.206;2023-04-03T12:54:58;6.25;;;1.23;;
53022;SDS011;38913;44.338;11.206;2023-04-03T12:59:35;2.10;;;1.20;;
53022;SDS011;38913;44.338;11.206;2023-04-03T13:02:01;2.10;;;0.98;;
53022;SDS011;38913;44.338;11.206;2023-04-03T13:04:27;1.90;;;0.95;;
53022;SDS011;38913;44.338;11.206;2023-04-03T13:06:53;3.90;;;1.10;;
53022;SDS011;38913;44.338;11.206;2023-04-03T13:09:26;1.95;;;1.02;;
53022;SDS011;38913;44.338;11.206;2023-04-03T13:12:03;1.40;;;1.00;;
53022;SDS011;38913;44.338;11.206;2023-04-03T13:14:34;1.98;;;1.00;;
53022;SDS011;38913;44.338;11.206;2023-04-03T13:17:15;1.52;;;1.00;;
53022;SDS011;38913;44.338;11.206;2023-04-03T13:19:41;1.17;;;0.85;;
53022;SDS011;38913;44.338;11.206;2023-04-03T13:22:56;2.15;;;1.00;;
53022;SDS011;38913;44.338;11.206;2023-04-03T13:24:56;1.63;;;0.80;;
53022;SDS011;38913;44.338;11.206;2023-04-03T13:27:23;2.00;;;1.00;;
53022;SDS011;38913;44.338;11.206;2023-04-03T13:29:52;3.08;;;1.10;;
53022;SDS011;38913;44.338;11.206;2023-04-03T13:32:19;1.30;;;1.13;;
53022;SDS011;38913;44.338;11.206;2023-04-03T13:34:45;2.33;;;1.00;;
53022;SDS011;38913;44.338;11.206;2023-04-03T13:37:30;2.38;;;1.15;;
53022;SDS011;38913;44.338;11.206;2023-04-03T13:42:33;1.67;;;0.90;;
53022;SDS011;38913;44.338;11.206;2023-04-03T13:47:45;1.60;;;0.87;;
53022;SDS011;38913;44.338;11.206;2023-04-03T13:52:46;1.67;;;0.80;;
53022;SDS011;38913;44.338;11.206;2023-04-03T13:57:55;2.85;;;0.85;;
53022;SDS011;38913;44.338;11.206;2023-04-03T14:01:07;2.35;;;0.98;;
53022;SDS011;38913;44.338;11.206;2023-04-03T14:03:22;1.63;;;1.00;;
53022;SDS011;38913;44.338;11.206;2023-04-03T14:05:48;1.25;;;0.93;;
53022;SDS011;38913;44.338;11.206;2023-04-03T14:08:13;1.83;;;0.93;;
53022;SDS011;38913;44.338;11.206;2023-04-03T14:10:38;2.03;;;0.80;;
53022;SDS011;38913;44.338;11.206;2023-04-03T14:13:05;1.48;;;0.77;;
53022;SDS011;38913;44.338;11.206;2023-04-03T14:15:30;2.05;;;0.90;;
53022;SDS011;38913;44.338;11.206;2023-04-03T14:17:56;2.08;;;0.93;;
53022;SDS011;38913;44.338;11.206;2023-04-03T14:20:23;1.92;;;0.95;;
53022;SDS011;38913;44.338;11.206;2023-04-03T14:22:49;2.53;;;0.90;;
53022;SDS011;38913;44.338;11.206;2023-04-03T14:25:16;2.00;;;1.15;;
53022;SDS011;38913;44.338;11.206;2023-04-03T14:27:42;2.47;;;1.10;;
53022;SDS011;38913;44.338;11.206;2023-04-03T14:30:11;2.40;;;0.90;;
53022;SDS011;38913;44.338;11.206;2023-04-03T14:32:37;1.33;;;0.90;;
53022;SDS011;38913;44.338;11.206;2023-04-03T14:35:03;1.05;;;0.70;;
53022;SDS011;38913;44.338;11.206;2023-04-03T14:37:29;3.05;;;0.85;;
53022;SDS011;38913;44.338;11.206;2023-04-03T14:39:55;1.60;;;1.05;;
53022;SDS011;38913;44.338;11.206;2023-04-03T14:42:22;1.50;;;0.80;;
53022;SDS011;38913;44.338;11.206;2023-04-03T14:44:48;2.22;;;0.90;;
53022;SDS011;38913;44.338;11.206;2023-04-03T14:47:14;2.38;;;0.90;;
53022;SDS011;38913;44.338;11.206;2023-04-03T14:49:40;1.30;;;0.90;;
53022;SDS011;38913;44.338;11.206;2023-04-03T14:52:06;2.58;;;1.23;;
53022;SDS011;38913;44.338;11.206;2023-04-03T14:54:34;1.73;;;1.00;;
53022;SDS011;38913;44.338;11.206;2023-04-03T14:57:00;3.00;;;1.10;;
53022;SDS011;38913;44.338;11.206;2023-04-03T14:59:26;2.63;;;1.13;;
53022;SDS011;38913;44.338;11.206;2023-04-03T15:01:52;3.08;;;1.40;;
53022;SDS011;38913;44.338;11.206;2023-04-03T15:04:19;1.87;;;1.30;;
53022;SDS011;38913;44.338;11.206;2023-04-03T15:06:45;1.67;;;1.15;;
53022;SDS011;38913;44.338;11.206;2023-04-03T15:09:23;1.40;;;0.88;;
53022;SDS011;38913;44.338;11.206;2023-04-03T15:11:54;2.30;;;1.15;;
53022;SDS011;38913;44.338;11.206;2023-04-03T15:14:19;2.35;;;1.00;;
53022;SDS011;38913;44.338;11.206;2023-04-03T15:16:45;3.13;;;1.10;;
53022;SDS011;38913;44.338;11.206;2023-04-03T15:19:10;1.73;;;1.13;;
53022;SDS011;38913;44.338;11.206;2023-04-03T15:21:36;2.55;;;1.08;;
53022;SDS011;38913;44.338;11.206;2023-04-03T15:24:02;1.58;;;0.98;;
53022;SDS011;38913;44.338;11.206;2023-04-03T15:26:27;2.42;;;1.05;;
53022;SDS011;38913;44.338;11.206;2023-04-03T15:28:52;2.08;;;1.25;;
53022;SDS011;38913;44.338;11.206;2023-04-03T15:31:18;2.40;;;1.00;;
53022;SDS011;38913;44.338;11.206;2023-04-03T15:33:43;2.13;;;0.97;;
53022;SDS011;38913;44.338;11.206;2023-04-03T15:36:08;1.65;;;0.80;;
53022;SDS011;38913;44.338;11.206;2023-04-03T15:38:34;2.75;;;1.00;;
53022;SDS011;38913;44.338;11.206;2023-04-03T15:40:59;1.20;;;0.80;;
53022;SDS011;38913;44.338;11.206;2023-04-03T15:43:24;2.28;;;0.90;;
53022;SDS011;38913;44.338;11.206;2023-04-03T15:45:50;2.58;;;1.00;;
53022;SDS011;38913;44.338;11.206;2023-04-03T15:48:16;2.30;;;0.98;;
53022;SDS011;38913;44.338;11.206;2023-04-03T15:50:42;1.55;;;0.90;;
53022;SDS011;38913;44.338;11.206;2023-04-03T15:53:07;1.60;;;0.90;;
53022;SDS011;38913;44.338;11.206;2023-04-03T15:55:33;1.33;;;0.95;;
53022;SDS011;38913;44.338;11.206;2023-04-03T15:57:59;1.42;;;1.05;;
53022;SDS011;38913;44.338;11.206;2023-04-03T16:00:25;2.65;;;1.02;;
53022;SDS011;38913;44.338;11.206;2023-04-03T16:02:58;1.83;;;0.90;;
53022;SDS011;38913;44.338;11.206;2023-04-03T16:05:24;1.65;;;0.80;;
53022;SDS011;38913;44.338;11.206;2023-04-03T16:07:53;1.40;;;1.02;;
53022;SDS011;38913;44.338;11.206;2023-04-03T16:10:20;2.80;;;0.98;;
53022;SDS011;38913;44.338;11.206;2023-04-03T16:12:45;1.98;;;1.00;;
53022;SDS011;38913;44.338;11.206;2023-04-03T16:15:11;2.33;;;0.95;;